Time;durP1;ratioP1;P1;durP2;ratioP2;P2;SDS_P1;SDS_P2;PMS_P1;PMS_P2;Temp;Humidity;BMP_temperature;BMP_pressure;BME280_temperature;BME280_humidity;BME280_pressure;Samples;Min_cycle;Max_cycle;Signal;HPM_P1;HPM_P2
2023/10/10 00:00:47;;;;;;;17.85;7.72;;;;;;;21.41;100.00;101365.59;21002209;28;20051;-70
2023/10/10 00:11:14;;;;;;;18.27;8.43;;;;;;;21.42;100.00;101367.38;20982912;28;20052;-70
2023/10/10 00:21:37;;;;;;;13.95;7.32;;;;;;;21.45;100.00;101351.22;20974528;28;20098;-70
2023/10/10 00:32:12;;;;;;;17.80;6.93;;;;;;;21.46;100.00;101357.47;20980579;28;20496;-71
2023/10/10 00:42:40;;;;;;;20.65;7.65;;;;;;;21.45;100.00;101353.00;20956011;28;20044;-71
2023/10/10 00:53:11;;;;;;;18.58;6.93;;;;;;;21.44;100.00;101354.81;20964239;28;20086;-70
2023/10/10 01:03:34;;;;;;;15.43;4.80;;;;;;;21.37;100.00;101338.84;20985927;28;20335;-71
2023/10/10 01:14:00;;;;;;;15.40;5.35;;;;;;;21.32;100.00;101338.94;20991011;28;20118;-70
2023/10/10 01:24:24;;;;;;;19.88;5.45;;;;;;;21.30;100.00;101330.03;20971925;28;20477;-70
2023/10/10 01:34:47;;;;;;;17.48;5.38;;;;;;;21.29;100.00;101338.97;20968893;28;20052;-70
2023/10/10 01:45:18;;;;;;;19.08;6.63;;;;;;;21.27;100.00;101326.50;20968362;28;20575;-70
2023/10/10 01:55:46;;;;;;;17.13;6.63;;;;;;;21.19;100.00;101333.84;20972400;28;20103;-70
2023/10/10 02:06:23;;;;;;;18.40;7.22;;;;;;;21.18;100.00;101327.56;20932501;28;20534;-70
2023/10/10 02:16:48;;;;;;;19.50;6.45;;;;;;;21.15;100.00;101324.00;20937181;28;20056;-71
2023/10/10 02:27:13;;;;;;;15.68;4.38;;;;;;;21.00;100.00;101318.00;20972550;28;20102;-71
2023/10/10 02:37:46;;;;;;;13.10;4.43;;;;;;;20.88;100.00;101315.53;20985890;28;20051;-70
2023/10/10 02:48:20;;;;;;;15.30;4.40;;;;;;;20.89;100.00;101311.06;21006020;28;20504;-70
2023/10/10 02:58:43;;;;;;;15.25;5.65;;;;;;;20.99;100.00;101310.00;20979656;28;20048;-70
2023/10/10 03:09:14;;;;;;;15.38;5.90;;;;;;;21.08;100.00;101305.31;20979614;28;20488;-70
2023/10/10 03:19:41;;;;;;;14.20;5.82;;;;;;;21.11;100.00;101301.72;20971928;28;20040;-71
2023/10/10 03:30:20;;;;;;;13.48;5.25;;;;;;;21.19;100.00;101299.81;20994994;28;20045;-70
2023/10/10 03:41:24;;;;;;;13.43;5.00;;;;;;;21.17;100.00;101316.84;20978992;28;20076;-71
2023/10/10 05:27:51;;;;;;;10.85;4.03;;;;;;;22.26;100.00;101347.69;20974343;28;20044;-70
2023/10/10 05:38:16;;;;;;;12.35;3.67;;;;;;;22.55;100.00;101355.09;20957513;28;20472;-71
2023/10/10 05:48:40;;;;;;;11.65;3.17;;;;;;;23.13;100.00;101353.63;20974407;28;20040;-70
2023/10/10 05:59:04;;;;;;;7.78;2.70;;;;;;;23.93;100.00;101357.69;20980424;27;20059;-70
2023/10/10 06:09:27;;;;;;;9.40;2.33;;;;;;;24.62;100.00;101357.28;21061117;28;20044;-71
2023/10/10 06:19:52;;;;;;;10.45;2.92;;;;;;;25.21;100.00;101354.41;20996910;28;20373;-71
2023/10/10 06:30:18;;;;;;;12.60;2.75;;;;;;;25.59;98.71;101380.13;20972159;28;20131;-70
2023/10/10 06:40:52;;;;;;;11.55;2.50;;;;;;;25.97;96.11;101389.50;20957359;28;20048;-71
2023/10/10 06:51:21;;;;;;;9.68;2.95;;;;;;;26.26;86.40;101396.50;20961606;28;20055;-71
2023/10/10 07:01:48;;;;;;;12.77;3.10;;;;;;;25.68;77.72;101393.28;20997814;28;20056;-70
2023/10/10 07:12:11;;;;;;;11.23;2.70;;;;;;;26.55;77.43;101393.56;20974629;28;20131;-71
2023/10/10 07:22:36;;;;;;;10.45;2.55;;;;;;;26.62;80.12;101400.47;20958754;28;20455;-71
2023/10/10 07:33:01;;;;;;;9.98;2.40;;;;;;;26.60;77.63;101402.38;21023183;28;20090;-70
2023/10/10 07:43:27;;;;;;;9.95;2.80;;;;;;;26.72;76.50;101395.56;21008220;28;20137;-71
2023/10/10 07:54:01;;;;;;;8.43;1.97;;;;;;;27.51;70.75;101384.91;21001747;28;20137;-71
2023/10/10 08:04:26;;;;;;;10.77;3.45;;;;;;;27.69;67.71;101380.56;20968729;28;20055;-71
2023/10/10 08:14:49;;;;;;;12.23;2.78;;;;;;;27.89;66.20;101385.06;20933435;28;20048;-71
2023/10/10 08:25:13;;;;;;;10.23;2.47;;;;;;;28.44;60.43;101388.78;21017245;28;20136;-72
2023/10/10 08:35:38;;;;;;;8.85;2.20;;;;;;;28.84;58.23;101391.31;21016314;28;20099;-72
2023/10/10 08:46:04;;;;;;;10.97;2.43;;;;;;;29.01;57.21;101386.88;20992661;28;20043;-70
2023/10/10 08:56:28;;;;;;;;;;;;;;;29.19;58.61;101392.25;20983284;28;20040;-70
2023/10/10 09:06:58;;;;;;;13.23;2.25;;;;;;;29.27;57.23;101394.59;20948869;28;20364;-70
2023/10/10 09:17:32;;;;;;;8.10;2.05;;;;;;;29.57;56.09;101378.50;20916152;28;20060;-71
2023/10/10 09:28:03;;;;;;;11.10;2.67;;;;;;;29.60;55.08;101362.88;20959817;28;20052;-71
2023/10/10 09:38:34;;;;;;;7.50;2.50;;;;;;;29.55;52.54;101366.81;20964814;28;20567;-71
2023/10/10 09:49:28;;;;;;;10.90;2.88;;;;;;;29.57;53.58;101364.88;20952200;28;20071;-71
2023/10/10 09:59:56;;;;;;;10.07;2.42;;;;;;;29.91;52.33;101336.69;20992195;28;20102;-72
2023/10/10 10:10:49;;;;;;;10.13;2.33;;;;;;;29.87;49.37;101329.66;21000043;28;20044;-72
2023/10/10 10:21:18;;;;;;;9.52;3.17;;;;;;;29.94;51.08;101331.09;20984440;28;20051;-71
2023/10/10 10:31:51;;;;;;;10.23;2.50;;;;;;;29.60;51.18;101304.84;21001093;28;20140;-72
2023/10/10 10:42:18;;;;;;;9.35;2.55;;;;;;;29.28;52.78;101288.38;21000918;28;20546;-72
2023/10/10 10:52:44;;;;;;;;;;;;;;;29.19;53.67;101290.72;20967486;28;20037;-72
2023/10/10 11:03:11;;;;;;;8.90;2.90;;;;;;;29.29;54.85;101279.25;20990535;28;19964;-71
2023/10/10 11:13:35;;;;;;;10.90;3.22;;;;;;;29.38;55.65;101260.72;20959759;28;20061;-71
2023/10/10 11:23:59;;;;;;;10.02;2.42;;;;;;;29.21;57.44;101250.72;20971137;28;20156;-71
2023/10/10 11:34:42;;;;;;;10.00;2.97;;;;;;;28.85;55.18;101245.41;20947811;28;20076;-71
2023/10/10 11:45:06;;;;;;;9.35;2.78;;;;;;;28.47;56.99;101223.78;21002643;28;20048;-71
2023/10/10 11:55:34;;;;;;;12.10;2.80;;;;;;;28.09;56.72;101216.66;20950424;28;20045;-72
2023/10/10 12:05:59;;;;;;;11.30;3.30;;;;;;;27.97;56.31;101218.13;20946387;28;20063;-71
2023/10/10 12:16:24;;;;;;;10.15;2.92;;;;;;;27.77;58.37;101220.94;20962046;28;20052;-70
2023/10/10 12:26:54;;;;;;;11.10;3.25;;;;;;;27.74;59.03;101205.69;20928350;28;20061;-71
2023/10/10 12:37:18;;;;;;;11.25;3.05;;;;;;;27.59;63.51;101191.97;20939543;28;20107;-70
2023/10/10 12:47:41;;;;;;;8.27;2.55;;;;;;;27.35;66.44;101183.16;20954980;28;20040;-71
2023/10/10 12:58:15;;;;;;;11.48;2.90;;;;;;;27.10;70.29;101171.69;20954089;28;20048;-71
2023/10/10 13:08:46;;;;;;;9.95;3.20;;;;;;;26.84;72.33;101191.81;20984805;28;20071;-71
2023/10/10 13:19:13;;;;;;;12.63;3.08;;;;;;;26.70;74.71;101178.00;20979032;28;20041;-71
2023/10/10 13:29:36;;;;;;;12.60;3.80;;;;;;;26.51;79.48;101183.38;20918444;28;20053;-70
2023/10/10 13:40:01;;;;;;;11.85;2.95;;;;;;;26.42;86.36;101187.34;20961929;28;20044;-69
2023/10/10 13:50:40;;;;;;;10.43;3.33;;;;;;;26.29;89.24;101187.94;20969354;28;20076;-70
2023/10/10 14:01:29;;;;;;;11.25;3.10;;;;;;;26.17;87.61;101170.34;20943593;28;20051;-70
2023/10/10 14:11:52;;;;;;;;;;;;;;;25.79;89.86;101147.59;20962290;28;20128;-71
2023/10/10 14:22:22;;;;;;;11.50;3.60;;;;;;;25.58;93.89;101164.69;20990516;28;20381;-71
2023/10/10 14:32:45;;;;;;;9.82;3.20;;;;;;;25.42;99.95;101170.66;21059569;28;20048;-71
2023/10/10 14:43:10;;;;;;;13.68;3.70;;;;;;;25.25;100.00;101158.75;21040735;28;20060;-71
2023/10/10 14:53:34;;;;;;;13.93;4.13;;;;;;;25.03;100.00;101164.09;20997043;28;20062;-70
2023/10/10 15:04:02;;;;;;;12.68;3.63;;;;;;;24.89;100.00;101179.91;20985274;28;20048;-71
2023/10/10 15:14:25;;;;;;;16.87;3.63;;;;;;;24.62;100.00;101171.84;21014690;28;20610;-70
2023/10/10 15:24:51;;;;;;;10.70;3.40;;;;;;;24.49;100.00;101191.25;21009523;28;20087;-71
2023/10/10 15:35:15;;;;;;;13.45;4.22;;;;;;;24.27;100.00;101183.03;20990220;28;20134;-72
2023/10/10 15:45:42;;;;;;;12.32;4.10;;;;;;;24.09;100.00;101197.97;20919651;28;20040;-71
2023/10/10 15:56:11;;;;;;;11.90;3.90;;;;;;;23.93;100.00;101198.53;21058518;28;20048;-71
2023/10/10 16:06:36;;;;;;;12.63;4.60;;;;;;;23.76;100.00;101213.44;20979085;28;20056;-71
2023/10/10 16:17:02;;;;;;;11.38;3.78;;;;;;;23.60;100.00;101209.47;20932771;28;20143;-71
2023/10/10 16:27:27;;;;;;;14.75;3.72;;;;;;;23.51;100.00;101220.50;20955757;28;20127;-71
2023/10/10 16:37:50;;;;;;;11.77;4.05;;;;;;;23.43;100.00;101225.25;20943040;28;20049;-70
2023/10/10 16:48:14;;;;;;;12.57;3.60;;;;;;;23.34;100.00;101228.19;20958087;28;20055;-71
2023/10/10 16:58:38;;;;;;;13.43;4.28;;;;;;;23.26;100.00;101241.91;20952138;28;20041;-71
2023/10/10 17:09:04;;;;;;;13.05;4.00;;;;;;;23.21;100.00;101257.31;20981238;28;20048;-72
2023/10/10 17:19:27;;;;;;;11.57;3.92;;;;;;;23.14;100.00;101252.16;20960932;28;20055;-71
2023/10/10 17:29:51;;;;;;;13.40;3.63;;;;;;;23.05;100.00;101254.16;20959997;28;20044;-70
2023/10/10 17:40:16;;;;;;;16.63;3.80;;;;;;;22.96;100.00;101254.44;20959069;28;20041;-71
2023/10/10 17:50:41;;;;;;;11.23;3.95;;;;;;;22.90;100.00;101276.16;20981368;28;20056;-70
2023/10/10 18:01:04;;;;;;;12.25;3.92;;;;;;;22.84;100.00;101272.75;20937696;28;20392;-70
2023/10/10 18:11:32;;;;;;;12.00;3.83;;;;;;;22.78;100.00;101278.25;20984272;28;20044;-71
2023/10/10 18:21:54;;;;;;;10.95;3.72;;;;;;;22.70;100.00;101283.84;20984776;28;20056;-71
2023/10/10 18:32:19;;;;;;;11.48;3.63;;;;;;;22.63;100.00;101277.72;20967618;28;20174;-71
2023/10/10 18:42:42;;;;;;;14.38;4.25;;;;;;;22.55;100.00;101273.44;20980056;28;20052;-70
2023/10/10 18:53:07;;;;;;;8.95;3.88;;;;;;;22.51;100.00;101274.47;20924032;28;20056;-71
2023/10/10 19:03:29;;;;;;;12.73;3.65;;;;;;;22.50;100.00;101276.28;20968642;28;20162;-70
2023/10/10 19:13:54;;;;;;;10.80;3.75;;;;;;;22.46;100.00;101270.97;20974845;28;20492;-71
2023/10/10 19:24:20;;;;;;;11.88;4.05;;;;;;;22.37;100.00;101274.81;20982125;28;20052;-71
2023/10/10 19:34:44;;;;;;;12.90;3.92;;;;;;;22.30;100.00;101278.56;20963997;28;20048;-70
2023/10/10 19:45:13;;;;;;;9.73;3.70;;;;;;;22.27;100.00;101295.66;20963801;28;20413;-70
2023/10/10 19:55:41;;;;;;;12.20;4.10;;;;;;;22.22;100.00;101297.56;20966475;28;20047;-70
2023/10/10 20:06:06;;;;;;;13.60;4.53;;;;;;;22.18;100.00;101305.78;20996642;28;20041;-71
2023/10/10 20:16:31;;;;;;;11.40;4.15;;;;;;;22.15;100.00;101303.13;20966950;28;20135;-70
2023/10/10 20:26:53;;;;;;;16.38;4.20;;;;;;;22.08;100.00;101310.47;20963659;28;20046;-70
2023/10/10 20:37:20;;;;;;;10.40;3.97;;;;;;;22.04;100.00;101308.78;20977694;28;20505;-71
2023/10/10 20:47:43;;;;;;;14.65;4.10;;;;;;;22.00;100.00;101312.44;20974119;28;20048;-71
2023/10/10 20:58:10;;;;;;;13.93;4.13;;;;;;;21.98;100.00;101325.06;20963216;28;20080;-71
2023/10/10 21:08:33;;;;;;;12.88;4.50;;;;;;;21.93;100.00;101329.59;20980677;28;20044;-71
2023/10/10 21:18:58;;;;;;;14.65;3.95;;;;;;;21.91;100.00;101326.06;20990603;28;20052;-71
2023/10/10 21:29:21;;;;;;;20.38;3.92;;;;;;;21.86;100.00;101320.78;20964653;28;20099;-71
2023/10/10 21:39:47;;;;;;;13.07;4.10;;;;;;;21.84;100.00;101319.06;21002612;28;20047;-71
2023/10/10 21:50:11;;;;;;;14.73;4.50;;;;;;;21.87;100.00;101322.53;20998815;28;20045;-71
2023/10/10 22:00:55;;;;;;;15.63;4.63;;;;;;;21.83;100.00;101303.84;20967430;28;20049;-70
2023/10/10 22:11:17;;;;;;;18.25;4.45;;;;;;;21.78;100.00;101293.19;20994100;28;20048;-71
2023/10/10 22:21:42;;;;;;;12.10;3.92;;;;;;;21.80;100.00;101288.66;20962398;28;20067;-71
2023/10/10 22:32:05;;;;;;;17.05;4.05;;;;;;;21.74;100.00;101304.91;20983634;28;20055;-71
2023/10/10 22:42:31;;;;;;;19.70;4.38;;;;;;;21.73;100.00;101319.25;20961150;28;20052;-70
2023/10/10 22:52:58;;;;;;;11.27;3.30;;;;;;;21.68;100.00;101313.09;20979000;28;20136;-71
2023/10/10 23:03:23;;;;;;;11.43;3.20;;;;;;;21.70;100.00;101302.34;20974313;28;20043;-71
2023/10/10 23:13:45;;;;;;;11.07;3.70;;;;;;;21.72;100.00;101305.88;21002994;28;20098;-70
2023/10/10 23:24:11;;;;;;;12.18;3.92;;;;;;;21.76;100.00;101303.09;20991768;28;20140;-71
2023/10/10 23:34:34;;;;;;;12.68;4.00;;;;;;;21.78;100.00;101286.94;20963410;28;20044;-71
2023/10/10 23:44:59;;;;;;;11.88;3.95;;;;;;;21.84;100.00;101273.34;20937851;28;20048;-71
2023/10/10 23:55:22;;;;;;;9.30;3.22;;;;;;;21.81;100.00;101268.91;20975903;28;20460;-70
